Cary, IL (60013)

2:06 PM CDT on May 05, 2015 (GMT -0500)
HillHurst | | Change Station
CLOSE
Current Station
Personal Weather Station
Location: Cary, IL
Elevation: 869 ft
Nearby Weather Stations

Elev 869 ft 42.22 °N, 88.23 °W | Updated 1 minute ago

Overcast
Overcast
52.3 °F
Feels Like 52.3 °F
N
1.7
Wind Variable Wind from NW

Today
High -- | Low -- °F
--% Chance of Precip.
Yesterday
High -- | Low -- °F
Precip. -- in
5:43 AM 7:56 PM
Full, 97% visible
Pressure 30.26 in
Visibility 0.5 miles
Clouds Overcast 300 ft
Dew Point 52 °F
Humidity 98%
Rainfall 0.85 in
Snow Depth Not available.
UV 3 out of 12
Pollen .60 out of 12
Air Quality Not available.
Flu Activity Local Activity
SPECI KPWK 051842Z 06008KT 1/2SM FG OVC003 09/08 A3026 RMK AO2 T00940083

More Conditions Fewer Conditions

Pressure 30.26 in
Visibility 0.5 miles
Clouds Overcast 300 ft
Dew Point 52 °F
Humidity 98%
Rainfall 0.85 in
Snow Depth Not available.
UV 3 out of 12
Pollen .60 out of 12
Air Quality Not available.
Flu Activity Local Activity
SPECI KPWK 051842Z 06008KT 1/2SM FG OVC003 09/08 A3026 RMK AO2 T00940083

More Conditions Fewer Conditions

10-Day Weather Forecast

Almanac

Astronomy

May. 05, 2015 Rise Set
Actual Time
Civil Twilight
Nautical Twilight
Astronomical Twilight
Moon
Length of Visible Light
Length of Day
Tomorrow will be .
, % of the Moon is Illuminated

Today's Extremes

State Highs State Lows

Community

WunderPhotos

Upload Photos

1,818,956 photos uploaded!

WunderBlogs® & News

Nearby

Air Quality

  Air Quality AQ Index Pollutant
Not available.

Snow Depth

Station Depth Elevation

Earthquake Activity

City Distance Mag. Time & Date
Minimum magnitude displayed is 2.5.

Coastal Water Temperatures

Place Temperature

Stations

Nearby Weather Stations

Station Location Temp. Windchill Dew Point Humidity Wind Precip. Elev Updated Type